sensor_id;sensor_type;location;lat;lon;timestamp;P1;durP1;ratioP1;P2;durP2;ratioP2
37609;SDS011;23457;51.966;8.230;2023-01-24T00:00:41;16.27;;;9.95;;
37609;SDS011;23457;51.966;8.230;2023-01-24T00:03:08;18.73;;;10.45;;
37609;SDS011;23457;51.966;8.230;2023-01-24T00:05:39;16.70;;;10.20;;
37609;SDS011;23457;51.966;8.230;2023-01-24T00:08:06;17.02;;;10.10;;
37609;SDS011;23457;51.966;8.230;2023-01-24T00:10:32;17.27;;;10.65;;
37609;SDS011;23457;51.966;8.230;2023-01-24T00:12:59;22.33;;;11.73;;
37609;SDS011;23457;51.966;8.230;2023-01-24T00:15:26;22.40;;;11.73;;
37609;SDS011;23457;51.966;8.230;2023-01-24T00:17:52;18.48;;;10.38;;
37609;SDS011;23457;51.966;8.230;2023-01-24T00:20:19;20.23;;;10.27;;
37609;SDS011;23457;51.966;8.230;2023-01-24T00:22:46;17.48;;;10.23;;
37609;SDS011;23457;51.966;8.230;2023-01-24T00:25:12;16.48;;;10.43;;
37609;SDS011;23457;51.966;8.230;2023-01-24T00:27:39;19.67;;;10.30;;
37609;SDS011;23457;51.966;8.230;2023-01-24T00:30:06;20.40;;;10.98;;
37609;SDS011;23457;51.966;8.230;2023-01-24T00:32:33;22.40;;;11.68;;
37609;SDS011;23457;51.966;8.230;2023-01-24T00:35:00;19.60;;;10.70;;
37609;SDS011;23457;51.966;8.230;2023-01-24T00:37:26;21.45;;;11.88;;
37609;SDS011;23457;51.966;8.230;2023-01-24T00:39:53;19.98;;;10.80;;
37609;SDS011;23457;51.966;8.230;2023-01-24T00:42:19;19.55;;;10.63;;
37609;SDS011;23457;51.966;8.230;2023-01-24T00:44:46;22.63;;;11.93;;
37609;SDS011;23457;51.966;8.230;2023-01-24T00:47:13;23.95;;;12.02;;
37609;SDS011;23457;51.966;8.230;2023-01-24T00:50:29;22.48;;;12.27;;
37609;SDS011;23457;51.966;8.230;2023-01-24T00:53:46;25.27;;;13.52;;
37609;SDS011;23457;51.966;8.230;2023-01-24T00:56:13;23.90;;;13.63;;
37609;SDS011;23457;51.966;8.230;2023-01-24T00:58:39;25.00;;;12.43;;
37609;SDS011;23457;51.966;8.230;2023-01-24T01:01:06;19.95;;;10.85;;
37609;SDS011;23457;51.966;8.230;2023-01-24T01:03:33;23.75;;;11.50;;
37609;SDS011;23457;51.966;8.230;2023-01-24T01:06:04;25.40;;;13.70;;
37609;SDS011;23457;51.966;8.230;2023-01-24T01:08:38;24.50;;;13.23;;
37609;SDS011;23457;51.966;8.230;2023-01-24T01:11:05;23.20;;;13.27;;
37609;SDS011;23457;51.966;8.230;2023-01-24T01:13:32;23.63;;;13.02;;
37609;SDS011;23457;51.966;8.230;2023-01-24T01:16:00;23.42;;;12.55;;
37609;SDS011;23457;51.966;8.230;2023-01-24T01:18:55;25.85;;;12.82;;
37609;SDS011;23457;51.966;8.230;2023-01-24T01:22:10;24.90;;;12.10;;
37609;SDS011;23457;51.966;8.230;2023-01-24T01:24:37;23.65;;;12.13;;
37609;SDS011;23457;51.966;8.230;2023-01-24T01:27:04;24.58;;;13.13;;
37609;SDS011;23457;51.966;8.230;2023-01-24T01:29:32;26.65;;;13.75;;
37609;SDS011;23457;51.966;8.230;2023-01-24T01:31:59;28.90;;;12.93;;
37609;SDS011;23457;51.966;8.230;2023-01-24T01:34:27;22.50;;;12.23;;
37609;SDS011;23457;51.966;8.230;2023-01-24T01:36:53;21.55;;;11.77;;
37609;SDS011;23457;51.966;8.230;2023-01-24T01:39:20;25.95;;;13.88;;
37609;SDS011;23457;51.966;8.230;2023-01-24T01:41:46;20.15;;;11.32;;
37609;SDS011;23457;51.966;8.230;2023-01-24T01:47:05;22.08;;;12.50;;
37609;SDS011;23457;51.966;8.230;2023-01-24T01:49:35;21.77;;;12.27;;
37609;SDS011;23457;51.966;8.230;2023-01-24T01:52:02;22.90;;;12.13;;
37609;SDS011;23457;51.966;8.230;2023-01-24T01:54:34;22.52;;;12.68;;
37609;SDS011;23457;51.966;8.230;2023-01-24T01:57:16;21.95;;;11.43;;
37609;SDS011;23457;51.966;8.230;2023-01-24T01:59:47;20.85;;;11.73;;
37609;SDS011;23457;51.966;8.230;2023-01-24T02:02:24;19.17;;;10.55;;
37609;SDS011;23457;51.966;8.230;2023-01-24T02:04:58;21.38;;;11.75;;
37609;SDS011;23457;51.966;8.230;2023-01-24T02:10:18;22.33;;;12.00;;
37609;SDS011;23457;51.966;8.230;2023-01-24T02:12:49;20.77;;;11.00;;
37609;SDS011;23457;51.966;8.230;2023-01-24T02:15:21;18.20;;;10.50;;
37609;SDS011;23457;51.966;8.230;2023-01-24T02:18:08;17.48;;;9.88;;
37609;SDS011;23457;51.966;8.230;2023-01-24T02:20:43;17.85;;;9.77;;
37609;SDS011;23457;51.966;8.230;2023-01-24T02:23:20;18.27;;;9.73;;
37609;SDS011;23457;51.966;8.230;2023-01-24T02:28:38;19.92;;;10.10;;
37609;SDS011;23457;51.966;8.230;2023-01-24T02:31:08;17.27;;;9.38;;
37609;SDS011;23457;51.966;8.230;2023-01-24T02:33:35;17.42;;;9.90;;
37609;SDS011;23457;51.966;8.230;2023-01-24T02:36:11;16.58;;;9.13;;
37609;SDS011;23457;51.966;8.230;2023-01-24T02:38:40;15.57;;;9.27;;
37609;SDS011;23457;51.966;8.230;2023-01-24T02:41:09;18.65;;;9.30;;
37609;SDS011;23457;51.966;8.230;2023-01-24T02:43:38;18.27;;;9.48;;
37609;SDS011;23457;51.966;8.230;2023-01-24T02:46:08;15.40;;;8.85;;
37609;SDS011;23457;51.966;8.230;2023-01-24T02:48:34;16.13;;;8.88;;
37609;SDS011;23457;51.966;8.230;2023-01-24T02:51:01;16.90;;;9.93;;
37609;SDS011;23457;51.966;8.230;2023-01-24T02:53:46;16.48;;;9.57;;
37609;SDS011;23457;51.966;8.230;2023-01-24T02:56:13;13.30;;;7.55;;
37609;SDS011;23457;51.966;8.230;2023-01-24T02:58:59;12.00;;;7.22;;
37609;SDS011;23457;51.966;8.230;2023-01-24T03:01:28;11.60;;;7.18;;
37609;SDS011;23457;51.966;8.230;2023-01-24T03:03:56;11.02;;;6.90;;
37609;SDS011;23457;51.966;8.230;2023-01-24T03:06:23;13.05;;;7.28;;
37609;SDS011;23457;51.966;8.230;2023-01-24T03:08:51;13.02;;;7.78;;
37609;SDS011;23457;51.966;8.230;2023-01-24T03:11:35;11.70;;;6.90;;
37609;SDS011;23457;51.966;8.230;2023-01-24T03:14:02;13.52;;;7.63;;
37609;SDS011;23457;51.966;8.230;2023-01-24T03:16:47;12.00;;;6.93;;
37609;SDS011;23457;51.966;8.230;2023-01-24T03:19:33;13.75;;;7.57;;
37609;SDS011;23457;51.966;8.230;2023-01-24T03:22:18;15.65;;;8.20;;
37609;SDS011;23457;51.966;8.230;2023-01-24T03:25:03;15.48;;;8.32;;
37609;SDS011;23457;51.966;8.230;2023-01-24T03:27:50;14.80;;;7.95;;
37609;SDS011;23457;51.966;8.230;2023-01-24T03:30:35;16.27;;;9.10;;
37609;SDS011;23457;51.966;8.230;2023-01-24T03:33:21;15.88;;;8.65;;
37609;SDS011;23457;51.966;8.230;2023-01-24T03:36:11;15.75;;;8.00;;
37609;SDS011;23457;51.966;8.230;2023-01-24T03:38:47;14.32;;;8.38;;
37609;SDS011;23457;51.966;8.230;2023-01-24T03:41:33;15.05;;;8.25;;
37609;SDS011;23457;51.966;8.230;2023-01-24T03:44:01;14.87;;;7.83;;
37609;SDS011;23457;51.966;8.230;2023-01-24T03:46:28;15.82;;;9.30;;
37609;SDS011;23457;51.966;8.230;2023-01-24T03:48:56;16.13;;;7.80;;
37609;SDS011;23457;51.966;8.230;2023-01-24T03:51:29;15.38;;;8.50;;
37609;SDS011;23457;51.966;8.230;2023-01-24T03:54:15;14.23;;;8.65;;
37609;SDS011;23457;51.966;8.230;2023-01-24T03:56:52;14.40;;;8.82;;
37609;SDS011;23457;51.966;8.230;2023-01-24T03:59:20;15.30;;;8.60;;
37609;SDS011;23457;51.966;8.230;2023-01-24T04:01:47;12.32;;;8.10;;
37609;SDS011;23457;51.966;8.230;2023-01-24T04:04:24;13.77;;;8.02;;
37609;SDS011;23457;51.966;8.230;2023-01-24T04:07:11;18.33;;;9.15;;
37609;SDS011;23457;51.966;8.230;2023-01-24T04:09:54;15.77;;;8.80;;
37609;SDS011;23457;51.966;8.230;2023-01-24T04:12:21;17.88;;;9.68;;
37609;SDS011;23457;51.966;8.230;2023-01-24T04:14:47;16.10;;;9.25;;
37609;SDS011;23457;51.966;8.230;2023-01-24T04:17:14;16.58;;;9.57;;
37609;SDS011;23457;51.966;8.230;2023-01-24T04:19:44;16.73;;;9.77;;
37609;SDS011;23457;51.966;8.230;2023-01-24T04:22:11;17.92;;;10.23;;
37609;SDS011;23457;51.966;8.230;2023-01-24T04:24:38;16.95;;;9.40;;
37609;SDS011;23457;51.966;8.230;2023-01-24T04:27:05;14.57;;;8.80;;
37609;SDS011;23457;51.966;8.230;2023-01-24T04:29:48;18.38;;;9.82;;
37609;SDS011;23457;51.966;8.230;2023-01-24T04:32:15;17.65;;;9.63;;
37609;SDS011;23457;51.966;8.230;2023-01-24T04:34:51;16.80;;;9.25;;
37609;SDS011;23457;51.966;8.230;2023-01-24T04:37:29;17.85;;;9.73;;
37609;SDS011;23457;51.966;8.230;2023-01-24T04:39:57;16.27;;;9.32;;
37609;SDS011;23457;51.966;8.230;2023-01-24T04:42:24;20.58;;;10.05;;
37609;SDS011;23457;51.966;8.230;2023-01-24T04:44:51;15.98;;;9.90;;
37609;SDS011;23457;51.966;8.230;2023-01-24T04:47:17;17.40;;;10.30;;
37609;SDS011;23457;51.966;8.230;2023-01-24T04:49:44;18.83;;;9.70;;
37609;SDS011;23457;51.966;8.230;2023-01-24T04:52:16;17.20;;;8.50;;
37609;SDS011;23457;51.966;8.230;2023-01-24T04:55:02;15.38;;;8.55;;
37609;SDS011;23457;51.966;8.230;2023-01-24T04:57:29;13.75;;;8.15;;
37609;SDS011;23457;51.966;8.230;2023-01-24T04:59:58;14.82;;;8.50;;
37609;SDS011;23457;51.966;8.230;2023-01-24T05:02:25;15.45;;;9.32;;
37609;SDS011;23457;51.966;8.230;2023-01-24T05:04:52;14.30;;;8.57;;
37609;SDS011;23457;51.966;8.230;2023-01-24T05:07:18;15.20;;;8.95;;
37609;SDS011;23457;51.966;8.230;2023-01-24T05:09:52;16.90;;;8.90;;
37609;SDS011;23457;51.966;8.230;2023-01-24T05:12:19;13.38;;;8.13;;
37609;SDS011;23457;51.966;8.230;2023-01-24T05:14:46;13.70;;;7.68;;
37609;SDS011;23457;51.966;8.230;2023-01-24T05:17:12;15.35;;;8.95;;
37609;SDS011;23457;51.966;8.230;2023-01-24T05:19:39;18.45;;;9.48;;
37609;SDS011;23457;51.966;8.230;2023-01-24T05:22:06;14.98;;;8.75;;
37609;SDS011;23457;51.966;8.230;2023-01-24T05:24:37;13.88;;;8.80;;
37609;SDS011;23457;51.966;8.230;2023-01-24T05:27:05;16.63;;;9.35;;
37609;SDS011;23457;51.966;8.230;2023-01-24T05:29:34;17.83;;;9.93;;
37609;SDS011;23457;51.966;8.230;2023-01-24T05:32:02;16.15;;;9.48;;
37609;SDS011;23457;51.966;8.230;2023-01-24T05:34:29;16.48;;;9.50;;
37609;SDS011;23457;51.966;8.230;2023-01-24T05:36:56;17.75;;;10.63;;
37609;SDS011;23457;51.966;8.230;2023-01-24T05:39:22;18.45;;;10.00;;
37609;SDS011;23457;51.966;8.230;2023-01-24T05:41:49;18.00;;;10.63;;
37609;SDS011;23457;51.966;8.230;2023-01-24T05:44:19;14.20;;;8.60;;
37609;SDS011;23457;51.966;8.230;2023-01-24T05:46:46;16.63;;;9.55;;
37609;SDS011;23457;51.966;8.230;2023-01-24T05:49:18;20.63;;;9.88;;
37609;SDS011;23457;51.966;8.230;2023-01-24T05:51:46;17.73;;;10.93;;
37609;SDS011;23457;51.966;8.230;2023-01-24T05:54:18;16.98;;;9.93;;
37609;SDS011;23457;51.966;8.230;2023-01-24T05:56:54;15.68;;;9.90;;
37609;SDS011;23457;51.966;8.230;2023-01-24T05:59:21;20.42;;;10.93;;
37609;SDS011;23457;51.966;8.230;2023-01-24T06:01:48;18.05;;;10.48;;
37609;SDS011;23457;51.966;8.230;2023-01-24T06:04:17;16.20;;;9.20;;
37609;SDS011;23457;51.966;8.230;2023-01-24T06:06:43;18.55;;;10.25;;
37609;SDS011;23457;51.966;8.230;2023-01-24T06:09:10;17.50;;;10.23;;
37609;SDS011;23457;51.966;8.230;2023-01-24T06:11:37;15.77;;;9.63;;
37609;SDS011;23457;51.966;8.230;2023-01-24T06:14:15;17.50;;;10.75;;
37609;SDS011;23457;51.966;8.230;2023-01-24T06:16:43;19.67;;;11.02;;
37609;SDS011;23457;51.966;8.230;2023-01-24T06:19:13;18.65;;;11.15;;
37609;SDS011;23457;51.966;8.230;2023-01-24T06:21:47;19.23;;;11.35;;
37609;SDS011;23457;51.966;8.230;2023-01-24T06:24:22;19.10;;;10.88;;
37609;SDS011;23457;51.966;8.230;2023-01-24T06:27:22;19.23;;;11.25;;
37609;SDS011;23457;51.966;8.230;2023-01-24T06:29:49;18.63;;;10.63;;
37609;SDS011;23457;51.966;8.230;2023-01-24T06:32:19;17.25;;;9.88;;
37609;SDS011;23457;51.966;8.230;2023-01-24T06:37:51;16.83;;;9.45;;
37609;SDS011;23457;51.966;8.230;2023-01-24T06:40:20;19.15;;;10.75;;
37609;SDS011;23457;51.966;8.230;2023-01-24T06:42:49;22.38;;;11.52;;
37609;SDS011;23457;51.966;8.230;2023-01-24T06:45:17;20.45;;;11.30;;
37609;SDS011;23457;51.966;8.230;2023-01-24T06:47:44;17.85;;;10.68;;
37609;SDS011;23457;51.966;8.230;2023-01-24T06:50:20;24.17;;;12.40;;
37609;SDS011;23457;51.966;8.230;2023-01-24T06:52:48;21.23;;;11.90;;
37609;SDS011;23457;51.966;8.230;2023-01-24T06:55:15;20.90;;;11.82;;
37609;SDS011;23457;51.966;8.230;2023-01-24T06:57:42;20.02;;;11.55;;
37609;SDS011;23457;51.966;8.230;2023-01-24T07:00:10;20.65;;;12.02;;
37609;SDS011;23457;51.966;8.230;2023-01-24T07:02:37;21.20;;;12.13;;
37609;SDS011;23457;51.966;8.230;2023-01-24T07:05:04;19.70;;;11.43;;
37609;SDS011;23457;51.966;8.230;2023-01-24T07:07:30;23.70;;;12.73;;
37609;SDS011;23457;51.966;8.230;2023-01-24T07:09:57;21.42;;;11.93;;
37609;SDS011;23457;51.966;8.230;2023-01-24T07:12:24;22.33;;;11.75;;
37609;SDS011;23457;51.966;8.230;2023-01-24T07:14:50;20.08;;;11.57;;
37609;SDS011;23457;51.966;8.230;2023-01-24T07:17:17;24.58;;;13.20;;
37609;SDS011;23457;51.966;8.230;2023-01-24T07:19:44;24.98;;;13.55;;
37609;SDS011;23457;51.966;8.230;2023-01-24T07:22:11;21.67;;;12.93;;
37609;SDS011;23457;51.966;8.230;2023-01-24T07:24:39;23.42;;;12.75;;
37609;SDS011;23457;51.966;8.230;2023-01-24T07:27:07;19.73;;;11.43;;
37609;SDS011;23457;51.966;8.230;2023-01-24T07:29:34;19.98;;;11.15;;
37609;SDS011;23457;51.966;8.230;2023-01-24T07:32:00;24.08;;;12.63;;
37609;SDS011;23457;51.966;8.230;2023-01-24T07:34:27;22.10;;;11.82;;
37609;SDS011;23457;51.966;8.230;2023-01-24T07:36:54;24.55;;;12.70;;
37609;SDS011;23457;51.966;8.230;2023-01-24T07:39:20;22.48;;;12.63;;
37609;SDS011;23457;51.966;8.230;2023-01-24T07:41:47;21.80;;;11.30;;
37609;SDS011;23457;51.966;8.230;2023-01-24T07:44:14;18.67;;;10.90;;
37609;SDS011;23457;51.966;8.230;2023-01-24T07:46:41;19.33;;;10.85;;
37609;SDS011;23457;51.966;8.230;2023-01-24T07:49:07;21.13;;;10.50;;
37609;SDS011;23457;51.966;8.230;2023-01-24T07:51:34;21.05;;;11.50;;
37609;SDS011;23457;51.966;8.230;2023-01-24T07:54:01;20.58;;;12.13;;
37609;SDS011;23457;51.966;8.230;2023-01-24T07:56:29;21.27;;;11.88;;
37609;SDS011;23457;51.966;8.230;2023-01-24T07:58:56;18.48;;;11.13;;
37609;SDS011;23457;51.966;8.230;2023-01-24T08:01:24;29.20;;;11.50;;
37609;SDS011;23457;51.966;8.230;2023-01-24T08:03:55;19.75;;;11.52;;
37609;SDS011;23457;51.966;8.230;2023-01-24T08:06:22;19.02;;;11.23;;
37609;SDS011;23457;51.966;8.230;2023-01-24T08:08:49;19.05;;;11.27;;
37609;SDS011;23457;51.966;8.230;2023-01-24T08:11:17;21.40;;;11.68;;
37609;SDS011;23457;51.966;8.230;2023-01-24T08:13:44;17.13;;;9.80;;
37609;SDS011;23457;51.966;8.230;2023-01-24T08:16:10;19.20;;;11.48;;
37609;SDS011;23457;51.966;8.230;2023-01-24T08:18:37;18.80;;;10.82;;
37609;SDS011;23457;51.966;8.230;2023-01-24T08:21:05;22.70;;;11.02;;
37609;SDS011;23457;51.966;8.230;2023-01-24T08:23:32;20.33;;;11.63;;
37609;SDS011;23457;51.966;8.230;2023-01-24T08:26:00;20.50;;;11.70;;
37609;SDS011;23457;51.966;8.230;2023-01-24T08:28:28;21.80;;;12.55;;
37609;SDS011;23457;51.966;8.230;2023-01-24T08:30:56;25.25;;;12.45;;
37609;SDS011;23457;51.966;8.230;2023-01-24T08:33:24;25.17;;;13.25;;
37609;SDS011;23457;51.966;8.230;2023-01-24T08:35:51;22.98;;;12.82;;
37609;SDS011;23457;51.966;8.230;2023-01-24T08:38:18;19.65;;;11.57;;
37609;SDS011;23457;51.966;8.230;2023-01-24T08:40:45;21.75;;;12.65;;
37609;SDS011;23457;51.966;8.230;2023-01-24T08:43:16;20.35;;;12.27;;
37609;SDS011;23457;51.966;8.230;2023-01-24T08:45:43;20.52;;;12.07;;
37609;SDS011;23457;51.966;8.230;2023-01-24T08:48:10;19.63;;;11.70;;
37609;SDS011;23457;51.966;8.230;2023-01-24T08:50:37;19.27;;;11.05;;
37609;SDS011;23457;51.966;8.230;2023-01-24T08:53:03;22.52;;;11.68;;
37609;SDS011;23457;51.966;8.230;2023-01-24T08:55:30;23.77;;;12.77;;
37609;SDS011;23457;51.966;8.230;2023-01-24T08:57:59;20.85;;;11.27;;
37609;SDS011;23457;51.966;8.230;2023-01-24T09:00:26;19.63;;;12.10;;
37609;SDS011;23457;51.966;8.230;2023-01-24T09:02:53;18.25;;;11.02;;
37609;SDS011;23457;51.966;8.230;2023-01-24T09:05:20;19.85;;;10.88;;
37609;SDS011;23457;51.966;8.230;2023-01-24T09:07:47;20.77;;;11.35;;
37609;SDS011;23457;51.966;8.230;2023-01-24T09:10:14;18.23;;;10.93;;
37609;SDS011;23457;51.966;8.230;2023-01-24T09:12:40;21.42;;;12.18;;
37609;SDS011;23457;51.966;8.230;2023-01-24T09:15:07;19.48;;;11.35;;
37609;SDS011;23457;51.966;8.230;2023-01-24T09:17:34;21.92;;;12.73;;
37609;SDS011;23457;51.966;8.230;2023-01-24T09:20:01;19.60;;;12.07;;
37609;SDS011;23457;51.966;8.230;2023-01-24T09:22:28;20.35;;;12.70;;
37609;SDS011;23457;51.966;8.230;2023-01-24T09:24:54;19.85;;;12.25;;
37609;SDS011;23457;51.966;8.230;2023-01-24T09:27:21;24.23;;;12.75;;
37609;SDS011;23457;51.966;8.230;2023-01-24T09:29:47;17.05;;;10.27;;
37609;SDS011;23457;51.966;8.230;2023-01-24T09:32:14;20.70;;;10.50;;
37609;SDS011;23457;51.966;8.230;2023-01-24T09:34:43;18.15;;;10.85;;
37609;SDS011;23457;51.966;8.230;2023-01-24T09:37:16;17.33;;;10.50;;
37609;SDS011;23457;51.966;8.230;2023-01-24T09:39:46;14.60;;;9.60;;
37609;SDS011;23457;51.966;8.230;2023-01-24T09:42:23;17.60;;;11.23;;
37609;SDS011;23457;51.966;8.230;2023-01-24T09:50:03;16.40;;;10.25;;
37609;SDS011;23457;51.966;8.230;2023-01-24T09:52:39;18.05;;;10.13;;
37609;SDS011;23457;51.966;8.230;2023-01-24T10:00:30;15.30;;;9.40;;
37609;SDS011;23457;51.966;8.230;2023-01-24T10:03:02;16.20;;;9.52;;
37609;SDS011;23457;51.966;8.230;2023-01-24T10:05:39;15.43;;;9.43;;
37609;SDS011;23457;51.966;8.230;2023-01-24T10:19:10;15.40;;;9.77;;
37609;SDS011;23457;51.966;8.230;2023-01-24T10:22:03;15.73;;;9.40;;
37609;SDS011;23457;51.966;8.230;2023-01-24T10:24:52;16.52;;;9.85;;
37609;SDS011;23457;51.966;8.230;2023-01-24T10:27:32;15.45;;;9.13;;
37609;SDS011;23457;51.966;8.230;2023-01-24T10:30:12;13.10;;;8.45;;
37609;SDS011;23457;51.966;8.230;2023-01-24T10:32:42;14.48;;;8.95;;
37609;SDS011;23457;51.966;8.230;2023-01-24T10:37:53;15.75;;;8.90;;
37609;SDS011;23457;51.966;8.230;2023-01-24T10:40:24;20.02;;;10.68;;
37609;SDS011;23457;51.966;8.230;2023-01-24T10:42:51;19.38;;;10.57;;
37609;SDS011;23457;51.966;8.230;2023-01-24T10:45:35;17.48;;;9.90;;
37609;SDS011;23457;51.966;8.230;2023-01-24T10:48:12;18.67;;;10.50;;
37609;SDS011;23457;51.966;8.230;2023-01-24T10:50:45;16.02;;;9.63;;
37609;SDS011;23457;51.966;8.230;2023-01-24T10:53:21;14.55;;;9.27;;
37609;SDS011;23457;51.966;8.230;2023-01-24T10:55:57;15.07;;;8.45;;
37609;SDS011;23457;51.966;8.230;2023-01-24T11:00:58;13.10;;;8.38;;
37609;SDS011;23457;51.966;8.230;2023-01-24T11:03:27;14.82;;;8.82;;
37609;SDS011;23457;51.966;8.230;2023-01-24T11:05:56;12.32;;;7.80;;
37609;SDS011;23457;51.966;8.230;2023-01-24T11:08:25;14.25;;;8.43;;
37609;SDS011;23457;51.966;8.230;2023-01-24T11:10:58;13.93;;;8.25;;
37609;SDS011;23457;51.966;8.230;2023-01-24T11:13:26;15.02;;;8.20;;
37609;SDS011;23457;51.966;8.230;2023-01-24T11:16:07;14.15;;;8.30;;
37609;SDS011;23457;51.966;8.230;2023-01-24T11:18:46;13.45;;;8.57;;
37609;SDS011;23457;51.966;8.230;2023-01-24T11:21:16;12.30;;;7.78;;
37609;SDS011;23457;51.966;8.230;2023-01-24T11:23:45;14.73;;;9.07;;
37609;SDS011;23457;51.966;8.230;2023-01-24T11:28:55;16.33;;;9.30;;
37609;SDS011;23457;51.966;8.230;2023-01-24T11:35:11;21.13;;;10.05;;
37609;SDS011;23457;51.966;8.230;2023-01-24T11:40:33;15.68;;;9.20;;
37609;SDS011;23457;51.966;8.230;2023-01-24T11:45:48;17.33;;;10.00;;
37609;SDS011;23457;51.966;8.230;2023-01-24T11:48:38;18.77;;;10.20;;
37609;SDS011;23457;51.966;8.230;2023-01-24T11:54:18;16.98;;;10.15;;
37609;SDS011;23457;51.966;8.230;2023-01-24T12:13:18;15.05;;;8.68;;
37609;SDS011;23457;51.966;8.230;2023-01-24T12:21:12;12.88;;;8.90;;
37609;SDS011;23457;51.966;8.230;2023-01-24T12:26:25;14.80;;;8.68;;
37609;SDS011;23457;51.966;8.230;2023-01-24T12:32:07;15.07;;;8.38;;
37609;SDS011;23457;51.966;8.230;2023-01-24T12:34:49;14.18;;;8.45;;
37609;SDS011;23457;51.966;8.230;2023-01-24T12:37:27;14.32;;;8.40;;
37609;SDS011;23457;51.966;8.230;2023-01-24T12:42:52;15.32;;;8.45;;
37609;SDS011;23457;51.966;8.230;2023-01-24T12:50:56;16.87;;;8.47;;
37609;SDS011;23457;51.966;8.230;2023-01-24T12:53:38;11.90;;;7.95;;
37609;SDS011;23457;51.966;8.230;2023-01-24T12:58:52;10.98;;;7.30;;
37609;SDS011;23457;51.966;8.230;2023-01-24T13:16:02;15.93;;;8.93;;
37609;SDS011;23457;51.966;8.230;2023-01-24T13:19:44;13.93;;;8.05;;
37609;SDS011;23457;51.966;8.230;2023-01-24T13:28:56;13.23;;;8.52;;
37609;SDS011;23457;51.966;8.230;2023-01-24T13:35:20;11.32;;;6.70;;
37609;SDS011;23457;51.966;8.230;2023-01-24T13:54:42;12.35;;;7.55;;
37609;SDS011;23457;51.966;8.230;2023-01-24T14:04:32;9.38;;;5.88;;
37609;SDS011;23457;51.966;8.230;2023-01-24T14:07:18;11.02;;;6.68;;
37609;SDS011;23457;51.966;8.230;2023-01-24T14:10:08;14.75;;;7.38;;
37609;SDS011;23457;51.966;8.230;2023-01-24T14:13:38;11.10;;;6.82;;
37609;SDS011;23457;51.966;8.230;2023-01-24T14:16:02;10.52;;;6.60;;
37609;SDS011;23457;51.966;8.230;2023-01-24T14:26:03;11.57;;;6.07;;
37609;SDS011;23457;51.966;8.230;2023-01-24T14:29:22;10.40;;;6.85;;
37609;SDS011;23457;51.966;8.230;2023-01-24T14:32:57;10.52;;;7.05;;
37609;SDS011;23457;51.966;8.230;2023-01-24T14:39:29;11.02;;;6.47;;
37609;SDS011;23457;51.966;8.230;2023-01-24T14:41:59;11.32;;;7.15;;
37609;SDS011;23457;51.966;8.230;2023-01-24T14:46:56;11.63;;;7.32;;
37609;SDS011;23457;51.966;8.230;2023-01-24T14:49:30;13.75;;;8.00;;
37609;SDS011;23457;51.966;8.230;2023-01-24T14:52:01;11.93;;;7.68;;
37609;SDS011;23457;51.966;8.230;2023-01-24T14:54:45;13.20;;;7.80;;
37609;SDS011;23457;51.966;8.230;2023-01-24T14:57:35;12.80;;;7.63;;
37609;SDS011;23457;51.966;8.230;2023-01-24T15:00:02;13.32;;;8.27;;
37609;SDS011;23457;51.966;8.230;2023-01-24T15:02:32;16.33;;;8.75;;
37609;SDS011;23457;51.966;8.230;2023-01-24T15:05:00;12.07;;;8.32;;
37609;SDS011;23457;51.966;8.230;2023-01-24T15:07:26;15.30;;;8.40;;
37609;SDS011;23457;51.966;8.230;2023-01-24T15:09:53;14.48;;;8.82;;
37609;SDS011;23457;51.966;8.230;2023-01-24T15:17:19;15.77;;;9.07;;
37609;SDS011;23457;51.966;8.230;2023-01-24T15:19:49;19.55;;;9.02;;
37609;SDS011;23457;51.966;8.230;2023-01-24T15:22:20;16.67;;;8.90;;
37609;SDS011;23457;51.966;8.230;2023-01-24T15:24:52;16.38;;;9.25;;
37609;SDS011;23457;51.966;8.230;2023-01-24T15:40:36;16.38;;;9.90;;
37609;SDS011;23457;51.966;8.230;2023-01-24T15:43:31;18.52;;;10.70;;
37609;SDS011;23457;51.966;8.230;2023-01-24T15:49:00;15.75;;;9.13;;
37609;SDS011;23457;51.966;8.230;2023-01-24T15:51:34;14.98;;;9.07;;
37609;SDS011;23457;51.966;8.230;2023-01-24T15:54:08;14.80;;;8.95;;
37609;SDS011;23457;51.966;8.230;2023-01-24T15:56:37;16.73;;;10.27;;
37609;SDS011;23457;51.966;8.230;2023-01-24T15:59:17;16.50;;;8.82;;
37609;SDS011;23457;51.966;8.230;2023-01-24T16:01:45;14.27;;;8.02;;
37609;SDS011;23457;51.966;8.230;2023-01-24T16:04:12;13.75;;;8.25;;
37609;SDS011;23457;51.966;8.230;2023-01-24T16:06:40;11.80;;;8.05;;
37609;SDS011;23457;51.966;8.230;2023-01-24T16:09:08;16.70;;;8.38;;
37609;SDS011;23457;51.966;8.230;2023-01-24T16:11:36;16.88;;;9.20;;
37609;SDS011;23457;51.966;8.230;2023-01-24T16:14:03;16.05;;;9.60;;
37609;SDS011;23457;51.966;8.230;2023-01-24T16:16:32;13.40;;;7.97;;
37609;SDS011;23457;51.966;8.230;2023-01-24T16:18:59;18.02;;;8.88;;
37609;SDS011;23457;51.966;8.230;2023-01-24T16:21:26;15.48;;;8.75;;
37609;SDS011;23457;51.966;8.230;2023-01-24T16:23:53;14.55;;;8.63;;
37609;SDS011;23457;51.966;8.230;2023-01-24T16:26:21;17.67;;;8.70;;
37609;SDS011;23457;51.966;8.230;2023-01-24T16:31:16;15.32;;;8.35;;
37609;SDS011;23457;51.966;8.230;2023-01-24T16:33:44;14.25;;;8.02;;
37609;SDS011;23457;51.966;8.230;2023-01-24T16:36:13;19.25;;;9.90;;
37609;SDS011;23457;51.966;8.230;2023-01-24T16:38:41;12.88;;;8.05;;
37609;SDS011;23457;51.966;8.230;2023-01-24T16:41:08;16.25;;;9.77;;
37609;SDS011;23457;51.966;8.230;2023-01-24T16:43:35;15.80;;;9.50;;
37609;SDS011;23457;51.966;8.230;2023-01-24T16:46:01;18.50;;;9.38;;
37609;SDS011;23457;51.966;8.230;2023-01-24T16:48:31;18.77;;;9.75;;
37609;SDS011;23457;51.966;8.230;2023-01-24T16:50:58;17.38;;;9.82;;
37609;SDS011;23457;51.966;8.230;2023-01-24T16:53:25;13.68;;;8.50;;
37609;SDS011;23457;51.966;8.230;2023-01-24T16:55:55;16.15;;;10.32;;
37609;SDS011;23457;51.966;8.230;2023-01-24T16:58:22;15.15;;;9.45;;
37609;SDS011;23457;51.966;8.230;2023-01-24T17:00:49;14.43;;;9.23;;
37609;SDS011;23457;51.966;8.230;2023-01-24T17:03:16;15.07;;;8.52;;
37609;SDS011;23457;51.966;8.230;2023-01-24T17:05:42;11.27;;;8.15;;
37609;SDS011;23457;51.966;8.230;2023-01-24T17:08:10;13.43;;;9.40;;
37609;SDS011;23457;51.966;8.230;2023-01-24T17:10:38;12.90;;;8.40;;
37609;SDS011;23457;51.966;8.230;2023-01-24T17:13:07;11.82;;;8.57;;
37609;SDS011;23457;51.966;8.230;2023-01-24T17:15:35;12.52;;;8.93;;
37609;SDS011;23457;51.966;8.230;2023-01-24T17:18:03;14.65;;;8.73;;
37609;SDS011;23457;51.966;8.230;2023-01-24T17:20:30;13.07;;;9.10;;
37609;SDS011;23457;51.966;8.230;2023-01-24T17:22:57;11.30;;;8.05;;
37609;SDS011;23457;51.966;8.230;2023-01-24T17:25:28;11.48;;;8.32;;
37609;SDS011;23457;51.966;8.230;2023-01-24T17:27:56;12.60;;;8.52;;
37609;SDS011;23457;51.966;8.230;2023-01-24T17:30:24;13.25;;;9.05;;
37609;SDS011;23457;51.966;8.230;2023-01-24T17:32:51;13.43;;;9.35;;
37609;SDS011;23457;51.966;8.230;2023-01-24T17:35:18;14.43;;;9.18;;
37609;SDS011;23457;51.966;8.230;2023-01-24T17:37:44;16.02;;;10.90;;
37609;SDS011;23457;51.966;8.230;2023-01-24T17:40:11;14.60;;;10.35;;
37609;SDS011;23457;51.966;8.230;2023-01-24T17:42:38;19.60;;;11.35;;
37609;SDS011;23457;51.966;8.230;2023-01-24T17:45:05;18.10;;;11.35;;
37609;SDS011;23457;51.966;8.230;2023-01-24T17:47:32;15.32;;;9.43;;
37609;SDS011;23457;51.966;8.230;2023-01-24T17:49:58;14.82;;;9.57;;
37609;SDS011;23457;51.966;8.230;2023-01-24T17:52:25;14.98;;;10.90;;